sensor_id;sensor_type;location;lat;lon;timestamp;pressure;altitude;pressure_sealevel;temperature
69552;BMP280;58993;45.320;11.864;2022-08-01T00:02:27;101737.23;;;29.87
69552;BMP280;58993;45.320;11.864;2022-08-01T00:04:56;101738.31;;;29.85
69552;BMP280;58993;45.320;11.864;2022-08-01T00:07:22;101734.48;;;29.86
69552;BMP280;58993;45.320;11.864;2022-08-01T00:09:48;101731.82;;;29.84
69552;BMP280;58993;45.320;11.864;2022-08-01T00:12:13;101735.77;;;29.82
69552;BMP280;58993;45.320;11.864;2022-08-01T00:14:39;101736.48;;;29.81
69552;BMP280;58993;45.320;11.864;2022-08-01T00:17:04;101739.23;;;29.81
69552;BMP280;58993;45.320;11.864;2022-08-01T00:19:30;101737.48;;;29.80
69552;BMP280;58993;45.320;11.864;2022-08-01T00:21:55;101739.20;;;29.79
69552;BMP280;58993;45.320;11.864;2022-08-01T00:24:21;101740.26;;;29.77
69552;BMP280;58993;45.320;11.864;2022-08-01T00:26:46;101741.90;;;29.78
69552;BMP280;58993;45.320;11.864;2022-08-01T00:29:12;101738.16;;;29.75
69552;BMP280;58993;45.320;11.864;2022-08-01T00:31:37;101737.84;;;29.74
69552;BMP280;58993;45.320;11.864;2022-08-01T00:34:02;101740.48;;;29.75
69552;BMP280;58993;45.320;11.864;2022-08-01T00:36:28;101741.89;;;29.74
69552;BMP280;58993;45.320;11.864;2022-08-01T00:38:53;101740.95;;;29.72
69552;BMP280;58993;45.320;11.864;2022-08-01T00:41:19;101737.52;;;29.71
69552;BMP280;58993;45.320;11.864;2022-08-01T00:43:44;101740.88;;;29.71
69552;BMP280;58993;45.320;11.864;2022-08-01T00:46:10;101740.04;;;29.70
69552;BMP280;58993;45.320;11.864;2022-08-01T00:48:35;101734.92;;;29.70
69552;BMP280;58993;45.320;11.864;2022-08-01T00:51:03;101738.48;;;29.70
69552;BMP280;58993;45.320;11.864;2022-08-01T00:53:29;101741.36;;;29.68
69552;BMP280;58993;45.320;11.864;2022-08-01T00:55:55;101745.77;;;29.69
69552;BMP280;58993;45.320;11.864;2022-08-01T00:58:22;101748.09;;;29.67
69552;BMP280;58993;45.320;11.864;2022-08-01T01:00:48;101745.95;;;29.68
69552;BMP280;58993;45.320;11.864;2022-08-01T01:03:13;101741.96;;;29.67
69552;BMP280;58993;45.320;11.864;2022-08-01T01:08:46;101748.80;;;29.67
69552;BMP280;58993;45.320;11.864;2022-08-01T01:11:31;101747.71;;;29.68
69552;BMP280;58993;45.320;11.864;2022-08-01T01:14:05;101743.13;;;29.65
69552;BMP280;58993;45.320;11.864;2022-08-01T01:16:37;101741.48;;;29.67
69552;BMP280;58993;45.320;11.864;2022-08-01T01:19:08;101742.79;;;29.67
69552;BMP280;58993;45.320;11.864;2022-08-01T01:27:01;101739.02;;;29.66
69552;BMP280;58993;45.320;11.864;2022-08-01T01:29:43;101737.16;;;29.67
69552;BMP280;58993;45.320;11.864;2022-08-01T01:32:42;101735.39;;;29.68
69552;BMP280;58993;45.320;11.864;2022-08-01T01:35:19;101736.48;;;29.70
69552;BMP280;58993;45.320;11.864;2022-08-01T01:37:47;101734.86;;;29.70
69552;BMP280;58993;45.320;11.864;2022-08-01T01:40:16;101730.14;;;29.70
69552;BMP280;58993;45.320;11.864;2022-08-01T01:42:43;101731.09;;;29.70
69552;BMP280;58993;45.320;11.864;2022-08-01T01:45:10;101733.29;;;29.71
69552;BMP280;58993;45.320;11.864;2022-08-01T01:47:37;101734.75;;;29.69
69552;BMP280;58993;45.320;11.864;2022-08-01T01:50:05;101735.08;;;29.66
69552;BMP280;58993;45.320;11.864;2022-08-01T01:52:32;101740.20;;;29.68
69552;BMP280;58993;45.320;11.864;2022-08-01T01:55:01;101740.27;;;29.67
69552;BMP280;58993;45.320;11.864;2022-08-01T01:57:28;101738.45;;;29.67
69552;BMP280;58993;45.320;11.864;2022-08-01T01:59:55;101738.70;;;29.65
69552;BMP280;58993;45.320;11.864;2022-08-01T02:02:22;101739.02;;;29.64
69552;BMP280;58993;45.320;11.864;2022-08-01T02:04:49;101738.30;;;29.64
69552;BMP280;58993;45.320;11.864;2022-08-01T02:07:22;101736.69;;;29.61
69552;BMP280;58993;45.320;11.864;2022-08-01T02:09:49;101737.23;;;29.58
69552;BMP280;58993;45.320;11.864;2022-08-01T02:12:17;101736.10;;;29.57
69552;BMP280;58993;45.320;11.864;2022-08-01T02:14:45;101735.52;;;29.59
69552;BMP280;58993;45.320;11.864;2022-08-01T02:17:16;101735.20;;;29.60
69552;BMP280;58993;45.320;11.864;2022-08-01T02:19:42;101731.78;;;29.60
69552;BMP280;58993;45.320;11.864;2022-08-01T02:22:11;101726.05;;;29.60
69552;BMP280;58993;45.320;11.864;2022-08-01T02:25:02;101725.77;;;29.57
69552;BMP280;58993;45.320;11.864;2022-08-01T02:27:34;101732.23;;;29.59
69552;BMP280;58993;45.320;11.864;2022-08-01T02:30:05;101733.23;;;29.58
69552;BMP280;58993;45.320;11.864;2022-08-01T02:32:37;101733.18;;;29.55
69552;BMP280;58993;45.320;11.864;2022-08-01T02:35:05;101733.55;;;29.52
69552;BMP280;58993;45.320;11.864;2022-08-01T02:37:34;101734.61;;;29.54
69552;BMP280;58993;45.320;11.864;2022-08-01T02:40:02;101730.13;;;29.51
69552;BMP280;58993;45.320;11.864;2022-08-01T02:42:29;101728.80;;;29.51
69552;BMP280;58993;45.320;11.864;2022-08-01T02:44:57;101728.25;;;29.49
69552;BMP280;58993;45.320;11.864;2022-08-01T02:47:23;101731.61;;;29.48
69552;BMP280;58993;45.320;11.864;2022-08-01T02:49:51;101728.20;;;29.45
69552;BMP280;58993;45.320;11.864;2022-08-01T02:52:19;101732.54;;;29.44
69552;BMP280;58993;45.320;11.864;2022-08-01T02:54:48;101735.73;;;29.44
69552;BMP280;58993;45.320;11.864;2022-08-01T02:57:15;101735.80;;;29.44
69552;BMP280;58993;45.320;11.864;2022-08-01T02:59:42;101740.25;;;29.47
69552;BMP280;58993;45.320;11.864;2022-08-01T03:02:10;101736.29;;;29.46
69552;BMP280;58993;45.320;11.864;2022-08-01T03:04:38;101736.55;;;29.46
69552;BMP280;58993;45.320;11.864;2022-08-01T03:07:06;101738.66;;;29.45
69552;BMP280;58993;45.320;11.864;2022-08-01T03:09:40;101739.39;;;29.47
69552;BMP280;58993;45.320;11.864;2022-08-01T03:12:13;101736.59;;;29.43
69552;BMP280;58993;45.320;11.864;2022-08-01T03:14:40;101738.67;;;29.43
69552;BMP280;58993;45.320;11.864;2022-08-01T03:17:08;101737.77;;;29.43
69552;BMP280;58993;45.320;11.864;2022-08-01T03:19:35;101736.23;;;29.42
69552;BMP280;58993;45.320;11.864;2022-08-01T03:22:06;101736.50;;;29.41
69552;BMP280;58993;45.320;11.864;2022-08-01T03:24:33;101739.55;;;29.43
69552;BMP280;58993;45.320;11.864;2022-08-01T03:27:00;101740.13;;;29.43
69552;BMP280;58993;45.320;11.864;2022-08-01T03:29:27;101733.98;;;29.40
69552;BMP280;58993;45.320;11.864;2022-08-01T03:31:55;101736.95;;;29.40
69552;BMP280;58993;45.320;11.864;2022-08-01T03:34:22;101737.23;;;29.39
69552;BMP280;58993;45.320;11.864;2022-08-01T03:36:52;101736.15;;;29.39
69552;BMP280;58993;45.320;11.864;2022-08-01T03:39:21;101739.09;;;29.39
69552;BMP280;58993;45.320;11.864;2022-08-01T03:41:56;101740.55;;;29.41
69552;BMP280;58993;45.320;11.864;2022-08-01T03:44:26;101740.38;;;29.42
69552;BMP280;58993;45.320;11.864;2022-08-01T03:47:00;101741.11;;;29.43
69552;BMP280;58993;45.320;11.864;2022-08-01T03:49:32;101741.95;;;29.45
69552;BMP280;58993;45.320;11.864;2022-08-01T03:52:01;101743.58;;;29.46
69552;BMP280;58993;45.320;11.864;2022-08-01T03:54:31;101740.30;;;29.44
69552;BMP280;58993;45.320;11.864;2022-08-01T03:57:00;101737.70;;;29.44
69552;BMP280;58993;45.320;11.864;2022-08-01T03:59:27;101735.14;;;29.46
69552;BMP280;58993;45.320;11.864;2022-08-01T04:01:53;101736.86;;;29.47
69552;BMP280;58993;45.320;11.864;2022-08-01T04:04:20;101735.32;;;29.46
69552;BMP280;58993;45.320;11.864;2022-08-01T04:06:46;101740.48;;;29.47
69552;BMP280;58993;45.320;11.864;2022-08-01T04:09:15;101738.73;;;29.44
69552;BMP280;58993;45.320;11.864;2022-08-01T04:11:41;101740.34;;;29.45
69552;BMP280;58993;45.320;11.864;2022-08-01T04:14:07;101741.73;;;29.45
69552;BMP280;58993;45.320;11.864;2022-08-01T04:16:33;101741.77;;;29.45
69552;BMP280;58993;45.320;11.864;2022-08-01T04:18:59;101738.85;;;29.43
69552;BMP280;58993;45.320;11.864;2022-08-01T04:21:26;101741.45;;;29.45
69552;BMP280;58993;45.320;11.864;2022-08-01T04:24:05;101742.20;;;29.42
69552;BMP280;58993;45.320;11.864;2022-08-01T04:26:34;101744.23;;;29.41
69552;BMP280;58993;45.320;11.864;2022-08-01T04:29:03;101748.84;;;29.43
69552;BMP280;58993;45.320;11.864;2022-08-01T04:31:31;101749.45;;;29.44
69552;BMP280;58993;45.320;11.864;2022-08-01T04:33:59;101752.89;;;29.45
69552;BMP280;58993;45.320;11.864;2022-08-01T04:36:26;101752.73;;;29.44
69552;BMP280;58993;45.320;11.864;2022-08-01T04:38:57;101756.08;;;29.45
69552;BMP280;58993;45.320;11.864;2022-08-01T04:41:24;101759.38;;;29.45
69552;BMP280;58993;45.320;11.864;2022-08-01T04:43:51;101763.71;;;29.46
69552;BMP280;58993;45.320;11.864;2022-08-01T04:46:17;101763.95;;;29.46
69552;BMP280;58993;45.320;11.864;2022-08-01T04:48:44;101761.98;;;29.44
69552;BMP280;58993;45.320;11.864;2022-08-01T04:51:15;101764.31;;;29.45
69552;BMP280;58993;45.320;11.864;2022-08-01T04:53:41;101762.20;;;29.42
69552;BMP280;58993;45.320;11.864;2022-08-01T04:56:07;101763.74;;;29.44
69552;BMP280;58993;45.320;11.864;2022-08-01T04:58:33;101763.96;;;29.45
69552;BMP280;58993;45.320;11.864;2022-08-01T05:00:59;101768.79;;;29.47
69552;BMP280;58993;45.320;11.864;2022-08-01T05:03:24;101767.15;;;29.45
69552;BMP280;58993;45.320;11.864;2022-08-01T05:05:49;101767.05;;;29.45
69552;BMP280;58993;45.320;11.864;2022-08-01T05:08:15;101771.13;;;29.44
69552;BMP280;58993;45.320;11.864;2022-08-01T05:10:41;101769.21;;;29.45
69552;BMP280;58993;45.320;11.864;2022-08-01T05:13:07;101768.95;;;29.47
69552;BMP280;58993;45.320;11.864;2022-08-01T05:15:34;101771.26;;;29.45
69552;BMP280;58993;45.320;11.864;2022-08-01T05:17:59;101769.84;;;29.45
69552;BMP280;58993;45.320;11.864;2022-08-01T05:20:26;101770.26;;;29.45
69552;BMP280;58993;45.320;11.864;2022-08-01T05:22:52;101772.45;;;29.46
69552;BMP280;58993;45.320;11.864;2022-08-01T05:25:17;101769.98;;;29.44
69552;BMP280;58993;45.320;11.864;2022-08-01T05:27:43;101770.30;;;29.47
69552;BMP280;58993;45.320;11.864;2022-08-01T05:30:09;101774.02;;;29.48
69552;BMP280;58993;45.320;11.864;2022-08-01T05:32:35;101777.54;;;29.46
69552;BMP280;58993;45.320;11.864;2022-08-01T05:35:01;101774.96;;;29.45
69552;BMP280;58993;45.320;11.864;2022-08-01T05:37:26;101773.17;;;29.45
69552;BMP280;58993;45.320;11.864;2022-08-01T05:39:52;101772.45;;;29.47
69552;BMP280;58993;45.320;11.864;2022-08-01T05:42:17;101777.29;;;29.27
69552;BMP280;58993;45.320;11.864;2022-08-01T05:44:43;101780.08;;;29.26
69552;BMP280;58993;45.320;11.864;2022-08-01T05:47:08;101780.69;;;29.25
69552;BMP280;58993;45.320;11.864;2022-08-01T05:49:33;101776.73;;;29.18
69552;BMP280;58993;45.320;11.864;2022-08-01T05:51:59;101777.04;;;29.17
69552;BMP280;58993;45.320;11.864;2022-08-01T05:54:27;101778.61;;;29.16
69552;BMP280;58993;45.320;11.864;2022-08-01T05:56:52;101778.35;;;29.15
69552;BMP280;58993;45.320;11.864;2022-08-01T05:59:18;101781.94;;;29.20
69552;BMP280;58993;45.320;11.864;2022-08-01T06:01:43;101783.80;;;29.22
69552;BMP280;58993;45.320;11.864;2022-08-01T06:04:09;101783.96;;;29.22
69552;BMP280;58993;45.320;11.864;2022-08-01T06:06:34;101779.76;;;29.24
69552;BMP280;58993;45.320;11.864;2022-08-01T06:09:00;101780.84;;;29.23
69552;BMP280;58993;45.320;11.864;2022-08-01T06:11:25;101779.83;;;29.24
69552;BMP280;58993;45.320;11.864;2022-08-01T06:13:50;101781.73;;;29.25
69552;BMP280;58993;45.320;11.864;2022-08-01T06:16:16;101782.67;;;29.27
69552;BMP280;58993;45.320;11.864;2022-08-01T06:18:41;101784.02;;;29.26
69552;BMP280;58993;45.320;11.864;2022-08-01T06:21:07;101783.84;;;29.27
69552;BMP280;58993;45.320;11.864;2022-08-01T06:23:32;101780.23;;;29.24
69552;BMP280;58993;45.320;11.864;2022-08-01T06:25:58;101782.58;;;29.24
69552;BMP280;58993;45.320;11.864;2022-08-01T06:28:24;101782.85;;;29.25
69552;BMP280;58993;45.320;11.864;2022-08-01T06:30:49;101780.85;;;29.24
69552;BMP280;58993;45.320;11.864;2022-08-01T06:33:15;101784.54;;;29.25
69552;BMP280;58993;45.320;11.864;2022-08-01T06:35:41;101782.58;;;29.26
69552;BMP280;58993;45.320;11.864;2022-08-01T06:38:06;101783.81;;;29.28
69552;BMP280;58993;45.320;11.864;2022-08-01T06:40:32;101783.51;;;29.28
69552;BMP280;58993;45.320;11.864;2022-08-01T06:42:58;101779.45;;;29.29
69552;BMP280;58993;45.320;11.864;2022-08-01T06:45:23;101779.10;;;29.31
69552;BMP280;58993;45.320;11.864;2022-08-01T06:47:51;101779.44;;;29.29
69552;BMP280;58993;45.320;11.864;2022-08-01T06:50:16;101781.58;;;29.27
69552;BMP280;58993;45.320;11.864;2022-08-01T06:52:42;101780.98;;;29.24
69552;BMP280;58993;45.320;11.864;2022-08-01T06:55:08;101779.38;;;29.31
69552;BMP280;58993;45.320;11.864;2022-08-01T06:57:33;101778.05;;;29.30
69552;BMP280;58993;45.320;11.864;2022-08-01T07:00:05;101776.90;;;29.24
69552;BMP280;58993;45.320;11.864;2022-08-01T07:02:36;101780.69;;;29.27
69552;BMP280;58993;45.320;11.864;2022-08-01T07:05:02;101785.55;;;29.31
69552;BMP280;58993;45.320;11.864;2022-08-01T07:07:29;101784.30;;;29.34
69552;BMP280;58993;45.320;11.864;2022-08-01T07:09:55;101785.94;;;29.41
69552;BMP280;58993;45.320;11.864;2022-08-01T07:12:21;101783.04;;;29.41
69552;BMP280;58993;45.320;11.864;2022-08-01T07:14:47;101785.05;;;29.41
69552;BMP280;58993;45.320;11.864;2022-08-01T07:17:12;101787.06;;;29.44
69552;BMP280;58993;45.320;11.864;2022-08-01T07:19:38;101781.46;;;29.48
69552;BMP280;58993;45.320;11.864;2022-08-01T07:22:03;101775.69;;;29.51
69552;BMP280;58993;45.320;11.864;2022-08-01T07:24:29;101779.18;;;29.52
69552;BMP280;58993;45.320;11.864;2022-08-01T07:26:54;101779.63;;;29.55
69552;BMP280;58993;45.320;11.864;2022-08-01T07:29:22;101780.80;;;29.57
69552;BMP280;58993;45.320;11.864;2022-08-01T07:31:47;101780.64;;;29.59
69552;BMP280;58993;45.320;11.864;2022-08-01T07:34:13;101780.48;;;29.59
69552;BMP280;58993;45.320;11.864;2022-08-01T07:36:38;101777.09;;;29.60
69552;BMP280;58993;45.320;11.864;2022-08-01T07:39:04;101771.69;;;29.61
69552;BMP280;58993;45.320;11.864;2022-08-01T07:41:29;101770.16;;;29.63
69552;BMP280;58993;45.320;11.864;2022-08-01T07:43:54;101770.23;;;29.66
69552;BMP280;58993;45.320;11.864;2022-08-01T07:46:20;101768.95;;;29.73
69552;BMP280;58993;45.320;11.864;2022-08-01T07:48:45;101770.88;;;29.73
69552;BMP280;58993;45.320;11.864;2022-08-01T07:51:11;101763.83;;;29.76
69552;BMP280;58993;45.320;11.864;2022-08-01T07:53:37;101767.21;;;29.77
69552;BMP280;58993;45.320;11.864;2022-08-01T07:56:03;101764.52;;;29.78
69552;BMP280;58993;45.320;11.864;2022-08-01T07:58:31;101767.46;;;29.80
69552;BMP280;58993;45.320;11.864;2022-08-01T08:00:56;101769.52;;;29.82
69552;BMP280;58993;45.320;11.864;2022-08-01T08:03:22;101769.35;;;29.84
69552;BMP280;58993;45.320;11.864;2022-08-01T08:05:47;101773.02;;;29.86
69552;BMP280;58993;45.320;11.864;2022-08-01T08:08:13;101772.85;;;29.86
69552;BMP280;58993;45.320;11.864;2022-08-01T08:10:40;101770.63;;;29.90
69552;BMP280;58993;45.320;11.864;2022-08-01T08:13:06;101772.81;;;29.90
69552;BMP280;58993;45.320;11.864;2022-08-01T08:15:31;101772.28;;;29.93
69552;BMP280;58993;45.320;11.864;2022-08-01T08:17:57;101770.97;;;29.98
69552;BMP280;58993;45.320;11.864;2022-08-01T08:20:22;101774.55;;;30.00
69552;BMP280;58993;45.320;11.864;2022-08-01T08:22:52;101769.96;;;29.99
69552;BMP280;58993;45.320;11.864;2022-08-01T08:25:18;101765.35;;;30.00
69552;BMP280;58993;45.320;11.864;2022-08-01T08:27:45;101764.30;;;30.01
69552;BMP280;58993;45.320;11.864;2022-08-01T08:30:11;101766.85;;;30.04
69552;BMP280;58993;45.320;11.864;2022-08-01T08:32:37;101765.23;;;30.06
69552;BMP280;58993;45.320;11.864;2022-08-01T08:35:04;101767.34;;;30.07
69552;BMP280;58993;45.320;11.864;2022-08-01T08:37:31;101769.14;;;30.08
69552;BMP280;58993;45.320;11.864;2022-08-01T08:39:56;101765.69;;;30.07
69552;BMP280;58993;45.320;11.864;2022-08-01T08:42:22;101766.45;;;30.10
69552;BMP280;58993;45.320;11.864;2022-08-01T08:44:47;101769.95;;;30.14
69552;BMP280;58993;45.320;11.864;2022-08-01T08:47:14;101770.71;;;30.14
69552;BMP280;58993;45.320;11.864;2022-08-01T08:49:43;101770.09;;;30.14
69552;BMP280;58993;45.320;11.864;2022-08-01T08:52:09;101766.61;;;30.11
69552;BMP280;58993;45.320;11.864;2022-08-01T08:54:37;101767.38;;;30.12
69552;BMP280;58993;45.320;11.864;2022-08-01T08:57:02;101766.23;;;30.13
69552;BMP280;58993;45.320;11.864;2022-08-01T08:59:29;101768.92;;;30.12
69552;BMP280;58993;45.320;11.864;2022-08-01T09:01:55;101768.98;;;30.14
69552;BMP280;58993;45.320;11.864;2022-08-01T09:04:21;101769.59;;;30.16
69552;BMP280;58993;45.320;11.864;2022-08-01T09:06:50;101770.27;;;30.17
69552;BMP280;58993;45.320;11.864;2022-08-01T09:09:16;101766.98;;;30.19
69552;BMP280;58993;45.320;11.864;2022-08-01T09:11:42;101767.41;;;30.21
69552;BMP280;58993;45.320;11.864;2022-08-01T09:14:15;101766.58;;;30.21
69552;BMP280;58993;45.320;11.864;2022-08-01T09:16:59;101764.86;;;30.19
69552;BMP280;58993;45.320;11.864;2022-08-01T09:19:24;101764.68;;;30.21
69552;BMP280;58993;45.320;11.864;2022-08-01T09:22:01;101766.39;;;30.20
69552;BMP280;58993;45.320;11.864;2022-08-01T09:24:29;101764.64;;;30.22
69552;BMP280;58993;45.320;11.864;2022-08-01T09:26:56;101761.62;;;30.21
69552;BMP280;58993;45.320;11.864;2022-08-01T09:29:24;101765.01;;;30.23
69552;BMP280;58993;45.320;11.864;2022-08-01T09:31:49;101761.96;;;30.26
69552;BMP280;58993;45.320;11.864;2022-08-01T09:34:24;101760.62;;;30.28
69552;BMP280;58993;45.320;11.864;2022-08-01T09:36:52;101761.14;;;30.29
69552;BMP280;58993;45.320;11.864;2022-08-01T09:39:21;101758.98;;;30.29
69552;BMP280;58993;45.320;11.864;2022-08-01T09:41:47;101757.79;;;30.29
69552;BMP280;58993;45.320;11.864;2022-08-01T09:44:14;101758.40;;;30.31
69552;BMP280;58993;45.320;11.864;2022-08-01T09:46:55;101753.02;;;30.34
69552;BMP280;58993;45.320;11.864;2022-08-01T09:49:32;101751.13;;;30.35
69552;BMP280;58993;45.320;11.864;2022-08-01T09:52:09;101747.42;;;30.41
69552;BMP280;58993;45.320;11.864;2022-08-01T09:54:35;101746.20;;;30.45
69552;BMP280;58993;45.320;11.864;2022-08-01T09:59:38;101746.14;;;30.41
69552;BMP280;58993;45.320;11.864;2022-08-01T10:02:10;101740.25;;;30.45
69552;BMP280;58993;45.320;11.864;2022-08-01T10:04:46;101737.11;;;30.46
69552;BMP280;58993;45.320;11.864;2022-08-01T10:07:12;101738.65;;;30.49
69552;BMP280;58993;45.320;11.864;2022-08-01T10:09:41;101736.63;;;30.45
69552;BMP280;58993;45.320;11.864;2022-08-01T10:12:08;101731.90;;;30.44
69552;BMP280;58993;45.320;11.864;2022-08-01T10:14:34;101729.96;;;30.46
69552;BMP280;58993;45.320;11.864;2022-08-01T10:17:01;101727.55;;;30.43
69552;BMP280;58993;45.320;11.864;2022-08-01T10:19:28;101726.71;;;30.40
69552;BMP280;58993;45.320;11.864;2022-08-01T10:21:56;101722.67;;;30.40
69552;BMP280;58993;45.320;11.864;2022-08-01T10:24:23;101720.48;;;30.40
69552;BMP280;58993;45.320;11.864;2022-08-01T10:26:51;101717.33;;;30.37
69552;BMP280;58993;45.320;11.864;2022-08-01T10:29:18;101715.59;;;30.36
69552;BMP280;58993;45.320;11.864;2022-08-01T10:31:46;101714.31;;;30.36
69552;BMP280;58993;45.320;11.864;2022-08-01T10:34:13;101711.84;;;30.35
69552;BMP280;58993;45.320;11.864;2022-08-01T10:36:47;101711.49;;;30.34
69552;BMP280;58993;45.320;11.864;2022-08-01T10:39:13;101712.61;;;30.35
69552;BMP280;58993;45.320;11.864;2022-08-01T10:41:45;101707.69;;;30.36
69552;BMP280;58993;45.320;11.864;2022-08-01T10:44:10;101707.47;;;30.39
69552;BMP280;58993;45.320;11.864;2022-08-01T10:46:44;101708.75;;;30.40
69552;BMP280;58993;45.320;11.864;2022-08-01T10:49:12;101706.50;;;30.43
69552;BMP280;58993;45.320;11.864;2022-08-01T10:51:41;101702.36;;;30.44
69552;BMP280;58993;45.320;11.864;2022-08-01T10:54:08;101700.25;;;30.43
69552;BMP280;58993;45.320;11.864;2022-08-01T10:56:49;101697.27;;;30.40
69552;BMP280;58993;45.320;11.864;2022-08-01T10:59:21;101694.61;;;30.38
69552;BMP280;58993;45.320;11.864;2022-08-01T11:02:04;101689.17;;;30.39
69552;BMP280;58993;45.320;11.864;2022-08-01T11:07:21;101690.59;;;30.48
69552;BMP280;58993;45.320;11.864;2022-08-01T11:10:03;101688.06;;;30.55
69552;BMP280;58993;45.320;11.864;2022-08-01T11:12:40;101679.67;;;30.62
69552;BMP280;58993;45.320;11.864;2022-08-01T11:17:34;101677.96;;;30.59
69552;BMP280;58993;45.320;11.864;2022-08-01T11:20:11;101672.63;;;30.61
69552;BMP280;58993;45.320;11.864;2022-08-01T11:30:48;101657.23;;;30.71
69552;BMP280;58993;45.320;11.864;2022-08-01T11:33:16;101652.23;;;30.71
69552;BMP280;58993;45.320;11.864;2022-08-01T11:36:17;101650.23;;;30.69
69552;BMP280;58993;45.320;11.864;2022-08-01T11:49:23;101635.79;;;30.89
69552;BMP280;58993;45.320;11.864;2022-08-01T11:51:56;101630.39;;;31.07
69552;BMP280;58993;45.320;11.864;2022-08-01T11:54:26;101623.06;;;31.15
69552;BMP280;58993;45.320;11.864;2022-08-01T11:56:55;101623.28;;;31.20
69552;BMP280;58993;45.320;11.864;2022-08-01T11:59:21;101620.21;;;31.27
69552;BMP280;58993;45.320;11.864;2022-08-01T12:01:48;101616.91;;;31.26
69552;BMP280;58993;45.320;11.864;2022-08-01T12:04:13;101614.13;;;31.20
69552;BMP280;58993;45.320;11.864;2022-08-01T12:06:39;101607.84;;;31.21
69552;BMP280;58993;45.320;11.864;2022-08-01T12:09:18;101606.73;;;31.18
69552;BMP280;58993;45.320;11.864;2022-08-01T12:11:47;101601.55;;;31.20
69552;BMP280;58993;45.320;11.864;2022-08-01T12:14:18;101601.98;;;31.23
69552;BMP280;58993;45.320;11.864;2022-08-01T12:16:52;101597.00;;;31.25
69552;BMP280;58993;45.320;11.864;2022-08-01T12:19:23;101595.94;;;31.45
69552;BMP280;58993;45.320;11.864;2022-08-01T12:22:09;101592.84;;;31.48
69552;BMP280;58993;45.320;11.864;2022-08-01T12:24:37;101577.73;;;31.51
69552;BMP280;58993;45.320;11.864;2022-08-01T12:27:05;101576.17;;;31.44
69552;BMP280;58993;45.320;11.864;2022-08-01T12:29:36;101579.70;;;31.37
69552;BMP280;58993;45.320;11.864;2022-08-01T12:32:02;101578.16;;;31.31
69552;BMP280;58993;45.320;11.864;2022-08-01T12:34:29;101573.41;;;31.31
69552;BMP280;58993;45.320;11.864;2022-08-01T12:37:00;101568.85;;;31.26
69552;BMP280;58993;45.320;11.864;2022-08-01T12:39:33;101567.81;;;31.27
69552;BMP280;58993;45.320;11.864;2022-08-01T12:41:59;101562.30;;;31.40
69552;BMP280;58993;45.320;11.864;2022-08-01T12:44:27;101562.11;;;31.46
69552;BMP280;58993;45.320;11.864;2022-08-01T12:46:54;101561.32;;;31.42
69552;BMP280;58993;45.320;11.864;2022-08-01T12:49:20;101560.31;;;31.40
69552;BMP280;58993;45.320;11.864;2022-08-01T12:51:46;101557.20;;;31.34
69552;BMP280;58993;45.320;11.864;2022-08-01T12:54:11;101560.14;;;31.29
69552;BMP280;58993;45.320;11.864;2022-08-01T12:56:37;101556.91;;;31.34
69552;BMP280;58993;45.320;11.864;2022-08-01T12:59:19;101558.28;;;31.31
69552;BMP280;58993;45.320;11.864;2022-08-01T13:01:47;101557.44;;;31.31
69552;BMP280;58993;45.320;11.864;2022-08-01T13:04:13;101560.17;;;31.30
69552;BMP280;58993;45.320;11.864;2022-08-01T13:06:38;101558.08;;;31.27
69552;BMP280;58993;45.320;11.864;2022-08-01T13:09:08;101557.19;;;31.24
69552;BMP280;58993;45.320;11.864;2022-08-01T13:11:36;101554.66;;;31.21
69552;BMP280;58993;45.320;11.864;2022-08-01T13:14:02;101552.56;;;31.17
69552;BMP280;58993;45.320;11.864;2022-08-01T13:16:27;101550.49;;;31.15
69552;BMP280;58993;45.320;11.864;2022-08-01T13:18:57;101549.93;;;31.18
69552;BMP280;58993;45.320;11.864;2022-08-01T13:21:29;101548.46;;;31.15
69552;BMP280;58993;45.320;11.864;2022-08-01T13:26:49;101540.30;;;31.16
69552;BMP280;58993;45.320;11.864;2022-08-01T13:29:40;101541.96;;;31.16
69552;BMP280;58993;45.320;11.864;2022-08-01T13:32:21;101536.67;;;31.26
69552;BMP280;58993;45.320;11.864;2022-08-01T13:34:48;101534.58;;;31.63
69552;BMP280;58993;45.320;11.864;2022-08-01T13:37:13;101530.73;;;31.81
69552;BMP280;58993;45.320;11.864;2022-08-01T13:39:43;101526.55;;;31.81
69552;BMP280;58993;45.320;11.864;2022-08-01T13:42:12;101526.69;;;31.72
69552;BMP280;58993;45.320;11.864;2022-08-01T13:44:38;101521.41;;;31.70
69552;BMP280;58993;45.320;11.864;2022-08-01T13:47:05;101510.61;;;31.90
69552;BMP280;58993;45.320;11.864;2022-08-01T13:49:30;101508.36;;;31.84
69552;BMP280;58993;45.320;11.864;2022-08-01T13:51:58;101504.65;;;31.92
69552;BMP280;58993;45.320;11.864;2022-08-01T13:54:23;101501.42;;;31.93
69552;BMP280;58993;45.320;11.864;2022-08-01T13:56:50;101495.70;;;31.89
69552;BMP280;58993;45.320;11.864;2022-08-01T13:59:15;101496.16;;;31.86
69552;BMP280;58993;45.320;11.864;2022-08-01T14:01:41;101499.69;;;32.05
69552;BMP280;58993;45.320;11.864;2022-08-01T14:04:06;101497.13;;;32.09
69552;BMP280;58993;45.320;11.864;2022-08-01T14:06:32;101497.86;;;32.15
69552;BMP280;58993;45.320;11.864;2022-08-01T14:08:59;101499.57;;;32.14
69552;BMP280;58993;45.320;11.864;2022-08-01T14:11:24;101502.87;;;32.06
69552;BMP280;58993;45.320;11.864;2022-08-01T14:13:50;101504.41;;;32.07
69552;BMP280;58993;45.320;11.864;2022-08-01T14:16:16;101501.21;;;32.03
69552;BMP280;58993;45.320;11.864;2022-08-01T14:18:42;101499.46;;;31.98
69552;BMP280;58993;45.320;11.864;2022-08-01T14:21:08;101495.98;;;32.21
69552;BMP280;58993;45.320;11.864;2022-08-01T14:23:33;101490.66;;;32.42
69552;BMP280;58993;45.320;11.864;2022-08-01T14:25:59;101490.45;;;32.54
69552;BMP280;58993;45.320;11.864;2022-08-01T14:28:24;101488.30;;;32.64